sensor_id;sensor_type;location;lat;lon;timestamp;P1;durP1;ratioP1;P2;durP2;ratioP2
1336;SDS011;662;48.814;9.318;2023-09-12T00:01:30;11.83;;;7.53;;
1336;SDS011;662;48.814;9.318;2023-09-12T00:03:57;10.53;;;7.73;;
1336;SDS011;662;48.814;9.318;2023-09-12T00:06:23;9.47;;;7.60;;
1336;SDS011;662;48.814;9.318;2023-09-12T00:08:49;10.53;;;7.47;;
1336;SDS011;662;48.814;9.318;2023-09-12T00:11:17;9.73;;;7.50;;
1336;SDS011;662;48.814;9.318;2023-09-12T00:13:42;8.27;;;7.43;;
1336;SDS011;662;48.814;9.318;2023-09-12T00:16:09;8.43;;;7.57;;
1336;SDS011;662;48.814;9.318;2023-09-12T00:18:35;7.97;;;7.17;;
1336;SDS011;662;48.814;9.318;2023-09-12T00:21:01;13.23;;;7.70;;
1336;SDS011;662;48.814;9.318;2023-09-12T00:23:27;9.57;;;8.07;;
1336;SDS011;662;48.814;9.318;2023-09-12T00:25:53;9.07;;;7.90;;
1336;SDS011;662;48.814;9.318;2023-09-12T00:28:19;8.93;;;7.97;;
1336;SDS011;662;48.814;9.318;2023-09-12T00:30:45;8.83;;;7.70;;
1336;SDS011;662;48.814;9.318;2023-09-12T00:33:11;8.70;;;7.80;;
1336;SDS011;662;48.814;9.318;2023-09-12T00:35:36;9.77;;;7.43;;
1336;SDS011;662;48.814;9.318;2023-09-12T00:38:02;8.50;;;7.47;;
1336;SDS011;662;48.814;9.318;2023-09-12T00:40:28;11.10;;;8.80;;
1336;SDS011;662;48.814;9.318;2023-09-12T00:42:54;7.93;;;7.10;;
1336;SDS011;662;48.814;9.318;2023-09-12T00:45:20;8.53;;;7.63;;
1336;SDS011;662;48.814;9.318;2023-09-12T00:47:45;9.80;;;7.93;;
1336;SDS011;662;48.814;9.318;2023-09-12T00:50:13;9.30;;;8.30;;
1336;SDS011;662;48.814;9.318;2023-09-12T00:52:41;10.47;;;7.80;;
1336;SDS011;662;48.814;9.318;2023-09-12T00:55:08;13.57;;;7.30;;
1336;SDS011;662;48.814;9.318;2023-09-12T00:57:34;11.30;;;7.83;;
1336;SDS011;662;48.814;9.318;2023-09-12T01:00:04;10.33;;;7.97;;
1336;SDS011;662;48.814;9.318;2023-09-12T01:02:38;8.03;;;7.33;;
1336;SDS011;662;48.814;9.318;2023-09-12T01:05:05;10.67;;;7.87;;
1336;SDS011;662;48.814;9.318;2023-09-12T01:07:38;8.87;;;7.97;;
1336;SDS011;662;48.814;9.318;2023-09-12T01:10:04;10.90;;;7.40;;
1336;SDS011;662;48.814;9.318;2023-09-12T01:12:31;10.60;;;8.40;;
1336;SDS011;662;48.814;9.318;2023-09-12T01:14:56;9.90;;;7.60;;
1336;SDS011;662;48.814;9.318;2023-09-12T01:17:22;9.57;;;7.50;;
1336;SDS011;662;48.814;9.318;2023-09-12T01:19:49;9.43;;;7.83;;
1336;SDS011;662;48.814;9.318;2023-09-12T01:27:46;12.93;;;8.40;;
1336;SDS011;662;48.814;9.318;2023-09-12T01:30:14;9.07;;;8.10;;
1336;SDS011;662;48.814;9.318;2023-09-12T01:32:43;11.80;;;7.97;;
1336;SDS011;662;48.814;9.318;2023-09-12T01:35:09;9.27;;;8.10;;
1336;SDS011;662;48.814;9.318;2023-09-12T01:37:34;9.17;;;8.27;;
1336;SDS011;662;48.814;9.318;2023-09-12T01:40:00;12.77;;;8.20;;
1336;SDS011;662;48.814;9.318;2023-09-12T01:42:30;10.53;;;7.90;;
1336;SDS011;662;48.814;9.318;2023-09-12T01:45:01;9.43;;;8.17;;
1336;SDS011;662;48.814;9.318;2023-09-12T01:47:27;10.90;;;8.00;;
1336;SDS011;662;48.814;9.318;2023-09-12T01:49:55;10.30;;;8.50;;
1336;SDS011;662;48.814;9.318;2023-09-12T01:52:26;12.90;;;8.30;;
1336;SDS011;662;48.814;9.318;2023-09-12T01:54:53;8.87;;;7.93;;
1336;SDS011;662;48.814;9.318;2023-09-12T01:57:20;9.67;;;8.43;;
1336;SDS011;662;48.814;9.318;2023-09-12T01:59:47;9.70;;;8.40;;
1336;SDS011;662;48.814;9.318;2023-09-12T02:02:16;12.67;;;8.40;;
1336;SDS011;662;48.814;9.318;2023-09-12T02:04:54;8.57;;;7.70;;
1336;SDS011;662;48.814;9.318;2023-09-12T02:07:29;9.17;;;8.13;;
1336;SDS011;662;48.814;9.318;2023-09-12T02:09:58;9.63;;;7.80;;
1336;SDS011;662;48.814;9.318;2023-09-12T02:12:25;9.50;;;8.57;;
1336;SDS011;662;48.814;9.318;2023-09-12T02:14:50;9.83;;;8.83;;
1336;SDS011;662;48.814;9.318;2023-09-12T02:17:16;9.33;;;8.40;;
1336;SDS011;662;48.814;9.318;2023-09-12T02:19:42;9.67;;;8.70;;
1336;SDS011;662;48.814;9.318;2023-09-12T02:22:07;10.70;;;8.53;;
1336;SDS011;662;48.814;9.318;2023-09-12T02:24:36;9.30;;;8.43;;
1336;SDS011;662;48.814;9.318;2023-09-12T02:27:01;12.30;;;9.43;;
1336;SDS011;662;48.814;9.318;2023-09-12T02:29:27;10.93;;;9.70;;
1336;SDS011;662;48.814;9.318;2023-09-12T02:31:53;8.70;;;7.90;;
1336;SDS011;662;48.814;9.318;2023-09-12T02:34:20;11.13;;;8.80;;
1336;SDS011;662;48.814;9.318;2023-09-12T02:36:46;8.63;;;7.70;;
1336;SDS011;662;48.814;9.318;2023-09-12T02:39:11;13.23;;;8.50;;
1336;SDS011;662;48.814;9.318;2023-09-12T02:41:37;10.63;;;8.73;;
1336;SDS011;662;48.814;9.318;2023-09-12T02:44:02;9.90;;;7.73;;
1336;SDS011;662;48.814;9.318;2023-09-12T02:46:28;9.13;;;8.13;;
1336;SDS011;662;48.814;9.318;2023-09-12T02:48:54;10.10;;;8.60;;
1336;SDS011;662;48.814;9.318;2023-09-12T02:51:19;11.10;;;7.87;;
1336;SDS011;662;48.814;9.318;2023-09-12T02:53:45;9.93;;;7.93;;
1336;SDS011;662;48.814;9.318;2023-09-12T02:56:11;8.87;;;7.63;;
1336;SDS011;662;48.814;9.318;2023-09-12T02:58:37;10.77;;;8.27;;
1336;SDS011;662;48.814;9.318;2023-09-12T03:01:02;9.00;;;8.10;;
1336;SDS011;662;48.814;9.318;2023-09-12T03:03:30;9.50;;;8.50;;
1336;SDS011;662;48.814;9.318;2023-09-12T03:05:59;9.33;;;8.43;;
1336;SDS011;662;48.814;9.318;2023-09-12T03:08:25;9.67;;;8.70;;
1336;SDS011;662;48.814;9.318;2023-09-12T03:10:54;10.67;;;9.10;;
1336;SDS011;662;48.814;9.318;2023-09-12T03:13:20;9.97;;;8.93;;
1336;SDS011;662;48.814;9.318;2023-09-12T03:15:48;10.87;;;9.87;;
1336;SDS011;662;48.814;9.318;2023-09-12T03:18:14;12.63;;;8.80;;
1336;SDS011;662;48.814;9.318;2023-09-12T03:20:40;11.60;;;9.00;;
1336;SDS011;662;48.814;9.318;2023-09-12T03:23:05;12.17;;;8.23;;
1336;SDS011;662;48.814;9.318;2023-09-12T03:25:35;9.60;;;8.30;;
1336;SDS011;662;48.814;9.318;2023-09-12T03:28:04;10.53;;;9.17;;
1336;SDS011;662;48.814;9.318;2023-09-12T03:30:34;11.03;;;8.50;;
1336;SDS011;662;48.814;9.318;2023-09-12T03:33:01;10.20;;;8.63;;
1336;SDS011;662;48.814;9.318;2023-09-12T03:35:33;9.87;;;8.97;;
1336;SDS011;662;48.814;9.318;2023-09-12T03:37:59;9.70;;;8.37;;
1336;SDS011;662;48.814;9.318;2023-09-12T03:40:27;9.33;;;8.20;;
1336;SDS011;662;48.814;9.318;2023-09-12T03:42:54;8.93;;;7.80;;
1336;SDS011;662;48.814;9.318;2023-09-12T03:45:19;12.17;;;9.20;;
1336;SDS011;662;48.814;9.318;2023-09-12T03:47:45;11.40;;;9.77;;
1336;SDS011;662;48.814;9.318;2023-09-12T03:50:12;8.80;;;7.90;;
1336;SDS011;662;48.814;9.318;2023-09-12T03:52:38;10.23;;;8.80;;
1336;SDS011;662;48.814;9.318;2023-09-12T03:55:04;10.30;;;9.27;;
1336;SDS011;662;48.814;9.318;2023-09-12T03:57:30;13.10;;;9.13;;
1336;SDS011;662;48.814;9.318;2023-09-12T03:59:56;10.27;;;9.10;;
1336;SDS011;662;48.814;9.318;2023-09-12T04:02:22;13.87;;;8.90;;
1336;SDS011;662;48.814;9.318;2023-09-12T04:04:48;10.47;;;9.37;;
1336;SDS011;662;48.814;9.318;2023-09-12T04:07:13;11.90;;;9.27;;
1336;SDS011;662;48.814;9.318;2023-09-12T04:09:39;17.70;;;9.50;;
1336;SDS011;662;48.814;9.318;2023-09-12T04:12:05;10.50;;;9.07;;
1336;SDS011;662;48.814;9.318;2023-09-12T04:14:32;9.77;;;8.43;;
1336;SDS011;662;48.814;9.318;2023-09-12T04:16:57;9.43;;;8.03;;
1336;SDS011;662;48.814;9.318;2023-09-12T04:19:24;13.17;;;10.00;;
1336;SDS011;662;48.814;9.318;2023-09-12T04:21:50;11.00;;;9.90;;
1336;SDS011;662;48.814;9.318;2023-09-12T04:24:15;10.43;;;9.20;;
1336;SDS011;662;48.814;9.318;2023-09-12T04:26:42;12.43;;;9.60;;
1336;SDS011;662;48.814;9.318;2023-09-12T04:29:09;12.83;;;9.30;;
1336;SDS011;662;48.814;9.318;2023-09-12T04:31:35;10.40;;;8.60;;
1336;SDS011;662;48.814;9.318;2023-09-12T04:34:01;12.50;;;9.73;;
1336;SDS011;662;48.814;9.318;2023-09-12T04:36:27;10.97;;;9.73;;
1336;SDS011;662;48.814;9.318;2023-09-12T04:38:52;12.50;;;10.80;;
1336;SDS011;662;48.814;9.318;2023-09-12T04:41:18;13.10;;;9.80;;
1336;SDS011;662;48.814;9.318;2023-09-12T04:43:44;12.80;;;8.93;;
1336;SDS011;662;48.814;9.318;2023-09-12T04:46:10;12.17;;;9.23;;
1336;SDS011;662;48.814;9.318;2023-09-12T04:48:36;11.90;;;9.00;;
1336;SDS011;662;48.814;9.318;2023-09-12T04:51:02;12.13;;;9.40;;
1336;SDS011;662;48.814;9.318;2023-09-12T04:53:28;12.63;;;9.70;;
1336;SDS011;662;48.814;9.318;2023-09-12T04:55:59;10.57;;;9.47;;
1336;SDS011;662;48.814;9.318;2023-09-12T04:58:29;10.90;;;9.53;;
1336;SDS011;662;48.814;9.318;2023-09-12T05:00:55;10.03;;;9.00;;
1336;SDS011;662;48.814;9.318;2023-09-12T05:03:21;11.00;;;10.00;;
1336;SDS011;662;48.814;9.318;2023-09-12T05:05:47;12.63;;;9.20;;
1336;SDS011;662;48.814;9.318;2023-09-12T05:08:13;10.53;;;9.50;;
1336;SDS011;662;48.814;9.318;2023-09-12T05:10:39;10.80;;;9.70;;
1336;SDS011;662;48.814;9.318;2023-09-12T05:13:05;11.20;;;9.60;;
1336;SDS011;662;48.814;9.318;2023-09-12T05:15:31;12.00;;;9.43;;
1336;SDS011;662;48.814;9.318;2023-09-12T05:17:56;13.93;;;8.97;;
1336;SDS011;662;48.814;9.318;2023-09-12T05:20:22;13.13;;;9.30;;
1336;SDS011;662;48.814;9.318;2023-09-12T05:22:47;10.67;;;9.57;;
1336;SDS011;662;48.814;9.318;2023-09-12T05:25:13;11.50;;;8.73;;
1336;SDS011;662;48.814;9.318;2023-09-12T05:27:39;10.83;;;9.10;;
1336;SDS011;662;48.814;9.318;2023-09-12T05:30:05;9.70;;;8.73;;
1336;SDS011;662;48.814;9.318;2023-09-12T05:32:31;11.03;;;9.33;;
1336;SDS011;662;48.814;9.318;2023-09-12T05:34:56;12.70;;;9.83;;
1336;SDS011;662;48.814;9.318;2023-09-12T05:37:22;12.50;;;9.63;;
1336;SDS011;662;48.814;9.318;2023-09-12T05:39:47;11.93;;;9.50;;
1336;SDS011;662;48.814;9.318;2023-09-12T05:42:13;12.70;;;9.47;;
1336;SDS011;662;48.814;9.318;2023-09-12T05:44:40;10.37;;;8.13;;
1336;SDS011;662;48.814;9.318;2023-09-12T05:47:07;10.00;;;8.80;;
1336;SDS011;662;48.814;9.318;2023-09-12T05:49:33;10.90;;;9.80;;
1336;SDS011;662;48.814;9.318;2023-09-12T05:51:59;13.67;;;9.17;;
1336;SDS011;662;48.814;9.318;2023-09-12T05:54:24;15.63;;;9.53;;
1336;SDS011;662;48.814;9.318;2023-09-12T05:56:50;14.20;;;9.57;;
1336;SDS011;662;48.814;9.318;2023-09-12T05:59:17;12.20;;;10.40;;
1336;SDS011;662;48.814;9.318;2023-09-12T06:01:43;12.63;;;9.53;;
1336;SDS011;662;48.814;9.318;2023-09-12T06:04:09;10.43;;;9.27;;
1336;SDS011;662;48.814;9.318;2023-09-12T06:06:34;11.37;;;10.27;;
1336;SDS011;662;48.814;9.318;2023-09-12T06:09:00;12.23;;;9.73;;
1336;SDS011;662;48.814;9.318;2023-09-12T06:11:26;11.17;;;9.70;;
1336;SDS011;662;48.814;9.318;2023-09-12T06:13:54;12.60;;;9.93;;
1336;SDS011;662;48.814;9.318;2023-09-12T06:16:28;11.57;;;9.60;;
1336;SDS011;662;48.814;9.318;2023-09-12T06:18:59;20.87;;;9.90;;
1336;SDS011;662;48.814;9.318;2023-09-12T06:21:25;13.83;;;9.50;;
1336;SDS011;662;48.814;9.318;2023-09-12T06:24:07;15.83;;;10.63;;
1336;SDS011;662;48.814;9.318;2023-09-12T06:26:35;11.20;;;9.23;;
1336;SDS011;662;48.814;9.318;2023-09-12T06:29:02;12.53;;;9.57;;
1336;SDS011;662;48.814;9.318;2023-09-12T06:31:27;11.70;;;9.23;;
1336;SDS011;662;48.814;9.318;2023-09-12T06:33:53;11.60;;;9.70;;
1336;SDS011;662;48.814;9.318;2023-09-12T06:36:19;14.40;;;10.27;;
1336;SDS011;662;48.814;9.318;2023-09-12T06:38:44;11.50;;;9.47;;
1336;SDS011;662;48.814;9.318;2023-09-12T06:41:10;10.43;;;9.30;;
1336;SDS011;662;48.814;9.318;2023-09-12T06:43:35;13.67;;;9.63;;
1336;SDS011;662;48.814;9.318;2023-09-12T06:46:01;13.10;;;9.40;;
1336;SDS011;662;48.814;9.318;2023-09-12T06:48:27;11.73;;;9.43;;
1336;SDS011;662;48.814;9.318;2023-09-12T06:50:54;10.63;;;9.30;;
1336;SDS011;662;48.814;9.318;2023-09-12T06:53:19;12.10;;;9.23;;
1336;SDS011;662;48.814;9.318;2023-09-12T06:55:45;12.10;;;9.90;;
1336;SDS011;662;48.814;9.318;2023-09-12T06:58:12;13.73;;;11.00;;
1336;SDS011;662;48.814;9.318;2023-09-12T07:00:37;12.07;;;9.97;;
1336;SDS011;662;48.814;9.318;2023-09-12T07:03:03;10.87;;;9.53;;
1336;SDS011;662;48.814;9.318;2023-09-12T07:05:29;10.70;;;8.60;;
1336;SDS011;662;48.814;9.318;2023-09-12T07:07:54;12.33;;;8.80;;
1336;SDS011;662;48.814;9.318;2023-09-12T07:10:20;18.47;;;10.33;;
1336;SDS011;662;48.814;9.318;2023-09-12T07:12:46;15.33;;;10.53;;
1336;SDS011;662;48.814;9.318;2023-09-12T07:15:11;11.03;;;9.00;;
1336;SDS011;662;48.814;9.318;2023-09-12T07:17:37;17.20;;;9.70;;
1336;SDS011;662;48.814;9.318;2023-09-12T07:20:03;10.10;;;9.10;;
1336;SDS011;662;48.814;9.318;2023-09-12T07:22:30;16.60;;;9.10;;
1336;SDS011;662;48.814;9.318;2023-09-12T07:24:59;10.97;;;8.67;;
1336;SDS011;662;48.814;9.318;2023-09-12T07:27:25;9.67;;;8.67;;
1336;SDS011;662;48.814;9.318;2023-09-12T07:29:51;11.90;;;9.70;;
1336;SDS011;662;48.814;9.318;2023-09-12T07:32:16;9.57;;;8.03;;
1336;SDS011;662;48.814;9.318;2023-09-12T07:34:42;10.23;;;8.87;;
1336;SDS011;662;48.814;9.318;2023-09-12T07:37:13;14.00;;;8.77;;
1336;SDS011;662;48.814;9.318;2023-09-12T07:39:39;9.27;;;8.37;;
1336;SDS011;662;48.814;9.318;2023-09-12T07:42:04;9.70;;;8.67;;
1336;SDS011;662;48.814;9.318;2023-09-12T07:44:30;14.33;;;10.10;;
1336;SDS011;662;48.814;9.318;2023-09-12T07:46:56;14.80;;;9.97;;
1336;SDS011;662;48.814;9.318;2023-09-12T07:49:21;14.77;;;10.20;;
1336;SDS011;662;48.814;9.318;2023-09-12T07:51:49;12.30;;;9.27;;
1336;SDS011;662;48.814;9.318;2023-09-12T07:54:14;10.13;;;9.23;;
1336;SDS011;662;48.814;9.318;2023-09-12T07:56:40;9.73;;;7.70;;
1336;SDS011;662;48.814;9.318;2023-09-12T07:59:05;11.90;;;9.47;;
1336;SDS011;662;48.814;9.318;2023-09-12T08:01:31;10.77;;;8.50;;
1336;SDS011;662;48.814;9.318;2023-09-12T08:03:56;10.90;;;9.80;;
1336;SDS011;662;48.814;9.318;2023-09-12T08:06:22;12.10;;;8.60;;
1336;SDS011;662;48.814;9.318;2023-09-12T08:08:49;9.17;;;8.20;;
1336;SDS011;662;48.814;9.318;2023-09-12T08:11:14;10.57;;;9.47;;
1336;SDS011;662;48.814;9.318;2023-09-12T08:13:40;10.80;;;9.13;;
1336;SDS011;662;48.814;9.318;2023-09-12T08:16:06;10.40;;;8.73;;
1336;SDS011;662;48.814;9.318;2023-09-12T08:18:31;10.73;;;9.60;;
1336;SDS011;662;48.814;9.318;2023-09-12T08:20:57;11.63;;;9.00;;
1336;SDS011;662;48.814;9.318;2023-09-12T08:23:22;9.83;;;8.77;;
1336;SDS011;662;48.814;9.318;2023-09-12T08:25:48;11.47;;;9.27;;
1336;SDS011;662;48.814;9.318;2023-09-12T08:28:14;13.03;;;8.50;;
1336;SDS011;662;48.814;9.318;2023-09-12T08:30:40;12.20;;;9.60;;
1336;SDS011;662;48.814;9.318;2023-09-12T08:33:05;8.73;;;7.60;;
1336;SDS011;662;48.814;9.318;2023-09-12T08:35:32;10.37;;;9.07;;
1336;SDS011;662;48.814;9.318;2023-09-12T08:37:58;11.43;;;9.13;;
1336;SDS011;662;48.814;9.318;2023-09-12T08:40:23;10.47;;;8.60;;
1336;SDS011;662;48.814;9.318;2023-09-12T08:42:49;9.80;;;8.77;;
1336;SDS011;662;48.814;9.318;2023-09-12T08:45:18;11.30;;;8.83;;
1336;SDS011;662;48.814;9.318;2023-09-12T08:47:45;10.70;;;8.80;;
1336;SDS011;662;48.814;9.318;2023-09-12T08:50:15;9.70;;;8.67;;
1336;SDS011;662;48.814;9.318;2023-09-12T08:52:45;10.07;;;8.97;;
1336;SDS011;662;48.814;9.318;2023-09-12T08:55:11;8.17;;;7.47;;
1336;SDS011;662;48.814;9.318;2023-09-12T08:57:38;10.87;;;8.87;;
1336;SDS011;662;48.814;9.318;2023-09-12T09:00:05;8.90;;;7.97;;
1336;SDS011;662;48.814;9.318;2023-09-12T09:02:32;10.20;;;9.00;;
1336;SDS011;662;48.814;9.318;2023-09-12T09:04:59;8.50;;;7.80;;
1336;SDS011;662;48.814;9.318;2023-09-12T09:07:27;9.97;;;8.87;;
1336;SDS011;662;48.814;9.318;2023-09-12T09:09:54;13.73;;;9.40;;
1336;SDS011;662;48.814;9.318;2023-09-12T09:12:21;9.90;;;8.90;;
1336;SDS011;662;48.814;9.318;2023-09-12T09:14:46;8.63;;;7.73;;
1336;SDS011;662;48.814;9.318;2023-09-12T09:17:12;10.20;;;7.90;;
1336;SDS011;662;48.814;9.318;2023-09-12T09:19:42;8.77;;;7.97;;
1336;SDS011;662;48.814;9.318;2023-09-12T09:22:08;9.43;;;8.47;;
1336;SDS011;662;48.814;9.318;2023-09-12T09:24:34;9.60;;;8.10;;
1336;SDS011;662;48.814;9.318;2023-09-12T09:27:00;9.23;;;8.40;;
1336;SDS011;662;48.814;9.318;2023-09-12T09:29:26;10.30;;;8.97;;
1336;SDS011;662;48.814;9.318;2023-09-12T09:32:01;10.87;;;8.90;;
1336;SDS011;662;48.814;9.318;2023-09-12T09:34:29;10.60;;;7.68;;
1336;SDS011;662;48.814;9.318;2023-09-12T09:36:57;15.43;;;8.43;;
1336;SDS011;662;48.814;9.318;2023-09-12T09:39:24;9.73;;;8.85;;
1336;SDS011;662;48.814;9.318;2023-09-12T09:41:55;10.25;;;8.55;;
1336;SDS011;662;48.814;9.318;2023-09-12T09:44:22;10.80;;;8.38;;
1336;SDS011;662;48.814;9.318;2023-09-12T09:46:53;8.30;;;7.53;;
1336;SDS011;662;48.814;9.318;2023-09-12T09:49:27;9.70;;;8.68;;
1336;SDS011;662;48.814;9.318;2023-09-12T09:51:55;8.65;;;7.95;;
1336;SDS011;662;48.814;9.318;2023-09-12T09:54:23;8.88;;;8.00;;
1336;SDS011;662;48.814;9.318;2023-09-12T09:56:53;12.95;;;8.93;;
1336;SDS011;662;48.814;9.318;2023-09-12T09:59:23;9.65;;;8.75;;
1336;SDS011;662;48.814;9.318;2023-09-12T10:01:50;8.90;;;8.00;;
1336;SDS011;662;48.814;9.318;2023-09-12T10:04:22;9.43;;;8.73;;
1336;SDS011;662;48.814;9.318;2023-09-12T10:06:49;10.40;;;8.40;;
1336;SDS011;662;48.814;9.318;2023-09-12T10:09:15;8.85;;;8.10;;
1336;SDS011;662;48.814;9.318;2023-09-12T10:11:45;8.05;;;7.35;;
1336;SDS011;662;48.814;9.318;2023-09-12T10:14:12;11.00;;;10.00;;
1336;SDS011;662;48.814;9.318;2023-09-12T10:16:47;8.70;;;7.95;;
1336;SDS011;662;48.814;9.318;2023-09-12T10:19:17;9.30;;;8.50;;
1336;SDS011;662;48.814;9.318;2023-09-12T10:24:34;8.83;;;8.10;;
1336;SDS011;662;48.814;9.318;2023-09-12T10:27:02;8.47;;;7.60;;
1336;SDS011;662;48.814;9.318;2023-09-12T10:29:29;9.30;;;8.50;;
1336;SDS011;662;48.814;9.318;2023-09-12T10:31:55;9.03;;;8.20;;
1336;SDS011;662;48.814;9.318;2023-09-12T10:34:21;9.40;;;8.43;;
1336;SDS011;662;48.814;9.318;2023-09-12T10:36:50;8.93;;;8.03;;
1336;SDS011;662;48.814;9.318;2023-09-12T10:39:18;9.60;;;8.30;;
1336;SDS011;662;48.814;9.318;2023-09-12T10:41:44;8.90;;;8.10;;
1336;SDS011;662;48.814;9.318;2023-09-12T10:44:17;9.70;;;8.70;;
1336;SDS011;662;48.814;9.318;2023-09-12T10:46:44;11.40;;;9.40;;
1336;SDS011;662;48.814;9.318;2023-09-12T10:49:11;9.20;;;8.40;;
1336;SDS011;662;48.814;9.318;2023-09-12T10:51:42;9.77;;;8.60;;
1336;SDS011;662;48.814;9.318;2023-09-12T10:54:09;8.30;;;7.43;;
1336;SDS011;662;48.814;9.318;2023-09-12T10:56:38;11.20;;;8.20;;
1336;SDS011;662;48.814;9.318;2023-09-12T11:01:31;9.33;;;8.37;;
1336;SDS011;662;48.814;9.318;2023-09-12T11:03:58;9.37;;;8.13;;
1336;SDS011;662;48.814;9.318;2023-09-12T11:06:30;10.70;;;8.43;;
1336;SDS011;662;48.814;9.318;2023-09-12T11:11:40;14.10;;;8.03;;
1336;SDS011;662;48.814;9.318;2023-09-12T11:14:08;12.20;;;9.40;;
1336;SDS011;662;48.814;9.318;2023-09-12T11:16:34;9.37;;;7.70;;
1336;SDS011;662;48.814;9.318;2023-09-12T11:21:49;10.57;;;7.80;;
1336;SDS011;662;48.814;9.318;2023-09-12T11:24:16;8.18;;;7.47;;
1336;SDS011;662;48.814;9.318;2023-09-12T11:26:52;10.88;;;8.27;;
1336;SDS011;662;48.814;9.318;2023-09-12T11:29:35;8.18;;;6.90;;
1336;SDS011;662;48.814;9.318;2023-09-12T11:32:02;8.20;;;7.35;;
1336;SDS011;662;48.814;9.318;2023-09-12T11:34:30;8.13;;;7.43;;
1336;SDS011;662;48.814;9.318;2023-09-12T11:37:01;7.78;;;7.00;;
1336;SDS011;662;48.814;9.318;2023-09-12T11:39:32;8.82;;;7.15;;
1336;SDS011;662;48.814;9.318;2023-09-12T11:41:59;8.35;;;7.10;;
1336;SDS011;662;48.814;9.318;2023-09-12T11:44:26;9.15;;;7.10;;
1336;SDS011;662;48.814;9.318;2023-09-12T11:46:53;8.52;;;7.25;;
1336;SDS011;662;48.814;9.318;2023-09-12T11:49:19;8.52;;;6.35;;
1336;SDS011;662;48.814;9.318;2023-09-12T11:51:49;6.80;;;6.30;;
1336;SDS011;662;48.814;9.318;2023-09-12T11:54:19;7.70;;;6.45;;
1336;SDS011;662;48.814;9.318;2023-09-12T11:56:51;7.03;;;6.32;;
1336;SDS011;662;48.814;9.318;2023-09-12T11:59:31;6.72;;;6.22;;
1336;SDS011;662;48.814;9.318;2023-09-12T12:01:57;11.45;;;6.80;;
1336;SDS011;662;48.814;9.318;2023-09-12T12:04:23;7.10;;;6.60;;
1336;SDS011;662;48.814;9.318;2023-09-12T12:06:51;9.10;;;6.35;;
1336;SDS011;662;48.814;9.318;2023-09-12T12:09:17;7.40;;;6.60;;
1336;SDS011;662;48.814;9.318;2023-09-12T12:11:44;7.22;;;6.45;;
1336;SDS011;662;48.814;9.318;2023-09-12T12:16:43;7.70;;;7.00;;
1336;SDS011;662;48.814;9.318;2023-09-12T12:19:10;7.70;;;7.07;;
1336;SDS011;662;48.814;9.318;2023-09-12T12:21:39;7.10;;;6.40;;
1336;SDS011;662;48.814;9.318;2023-09-12T12:24:15;9.65;;;6.32;;
1336;SDS011;662;48.814;9.318;2023-09-12T12:26:41;6.25;;;5.70;;
1336;SDS011;662;48.814;9.318;2023-09-12T12:29:10;6.85;;;6.15;;
1336;SDS011;662;48.814;9.318;2023-09-12T12:31:37;6.65;;;6.05;;
1336;SDS011;662;48.814;9.318;2023-09-12T12:34:02;6.95;;;6.25;;
1336;SDS011;662;48.814;9.318;2023-09-12T12:36:29;6.57;;;6.05;;
1336;SDS011;662;48.814;9.318;2023-09-12T12:38:55;6.13;;;5.57;;
1336;SDS011;662;48.814;9.318;2023-09-12T12:41:27;6.95;;;6.40;;
1336;SDS011;662;48.814;9.318;2023-09-12T12:43:56;6.43;;;5.93;;
1336;SDS011;662;48.814;9.318;2023-09-12T12:46:25;7.55;;;6.28;;
1336;SDS011;662;48.814;9.318;2023-09-12T12:48:51;6.85;;;6.25;;
1336;SDS011;662;48.814;9.318;2023-09-12T12:51:18;6.80;;;6.05;;
1336;SDS011;662;48.814;9.318;2023-09-12T12:53:49;7.05;;;6.35;;
1336;SDS011;662;48.814;9.318;2023-09-12T12:56:22;6.35;;;5.85;;
1336;SDS011;662;48.814;9.318;2023-09-12T12:58:52;6.00;;;5.53;;
1336;SDS011;662;48.814;9.318;2023-09-12T13:01:22;6.60;;;6.10;;
1336;SDS011;662;48.814;9.318;2023-09-12T13:03:47;6.53;;;5.63;;
1336;SDS011;662;48.814;9.318;2023-09-12T13:06:17;6.20;;;5.60;;
1336;SDS011;662;48.814;9.318;2023-09-12T13:08:43;8.20;;;6.55;;
1336;SDS011;662;48.814;9.318;2023-09-12T13:11:10;5.85;;;4.90;;
1336;SDS011;662;48.814;9.318;2023-09-12T13:13:40;7.28;;;5.85;;
1336;SDS011;662;48.814;9.318;2023-09-12T13:16:07;6.10;;;5.65;;
1336;SDS011;662;48.814;9.318;2023-09-12T13:18:34;7.78;;;6.43;;
1336;SDS011;662;48.814;9.318;2023-09-12T13:21:03;6.60;;;5.60;;
1336;SDS011;662;48.814;9.318;2023-09-12T13:23:29;6.57;;;5.97;;
1336;SDS011;662;48.814;9.318;2023-09-12T13:25:56;6.30;;;5.70;;
1336;SDS011;662;48.814;9.318;2023-09-12T13:28:23;7.88;;;7.00;;
1336;SDS011;662;48.814;9.318;2023-09-12T13:30:53;6.45;;;5.82;;
1336;SDS011;662;48.814;9.318;2023-09-12T13:33:20;6.75;;;6.15;;
1336;SDS011;662;48.814;9.318;2023-09-12T13:35:48;8.83;;;6.60;;
1336;SDS011;662;48.814;9.318;2023-09-12T13:38:14;10.73;;;6.47;;
1336;SDS011;662;48.814;9.318;2023-09-12T13:40:42;8.50;;;6.40;;
1336;SDS011;662;48.814;9.318;2023-09-12T13:43:09;7.40;;;6.80;;
1336;SDS011;662;48.814;9.318;2023-09-12T13:45:35;8.77;;;6.50;;
1336;SDS011;662;48.814;9.318;2023-09-12T13:48:04;7.40;;;6.70;;
1336;SDS011;662;48.814;9.318;2023-09-12T13:50:31;7.30;;;6.70;;
1336;SDS011;662;48.814;9.318;2023-09-12T13:52:57;7.10;;;6.40;;
1336;SDS011;662;48.814;9.318;2023-09-12T13:55:33;7.90;;;7.10;;
1336;SDS011;662;48.814;9.318;2023-09-12T13:58:01;6.07;;;5.57;;
1336;SDS011;662;48.814;9.318;2023-09-12T14:00:28;7.40;;;5.73;;
1336;SDS011;662;48.814;9.318;2023-09-12T14:02:54;6.87;;;5.37;;
1336;SDS011;662;48.814;9.318;2023-09-12T14:05:20;6.78;;;5.85;;
1336;SDS011;662;48.814;9.318;2023-09-12T14:07:46;10.73;;;6.22;;
1336;SDS011;662;48.814;9.318;2023-09-12T14:10:12;7.30;;;6.55;;
1336;SDS011;662;48.814;9.318;2023-09-12T14:12:38;7.40;;;6.70;;
1336;SDS011;662;48.814;9.318;2023-09-12T14:15:04;11.80;;;5.93;;
1336;SDS011;662;48.814;9.318;2023-09-12T14:17:31;6.65;;;5.80;;
1336;SDS011;662;48.814;9.318;2023-09-12T14:19:57;6.57;;;5.97;;
1336;SDS011;662;48.814;9.318;2023-09-12T14:22:23;10.10;;;6.20;;
1336;SDS011;662;48.814;9.318;2023-09-12T14:24:49;7.18;;;6.53;;
1336;SDS011;662;48.814;9.318;2023-09-12T14:27:14;6.40;;;5.82;;
1336;SDS011;662;48.814;9.318;2023-09-12T14:29:40;7.43;;;6.72;;
1336;SDS011;662;48.814;9.318;2023-09-12T14:32:10;7.60;;;7.00;;
1336;SDS011;662;48.814;9.318;2023-09-12T14:34:37;8.25;;;6.45;;
1336;SDS011;662;48.814;9.318;2023-09-12T14:37:02;12.48;;;7.28;;
1336;SDS011;662;48.814;9.318;2023-09-12T14:39:28;12.43;;;7.68;;
1336;SDS011;662;48.814;9.318;2023-09-12T14:41:54;8.33;;;7.63;;
1336;SDS011;662;48.814;9.318;2023-09-12T14:44:22;7.63;;;6.93;;
1336;SDS011;662;48.814;9.318;2023-09-12T14:46:50;10.60;;;7.47;;
1336;SDS011;662;48.814;9.318;2023-09-12T14:49:15;9.70;;;6.73;;
1336;SDS011;662;48.814;9.318;2023-09-12T14:51:41;8.30;;;6.50;;
1336;SDS011;662;48.814;9.318;2023-09-12T14:54:08;7.20;;;6.60;;
1336;SDS011;662;48.814;9.318;2023-09-12T14:56:35;7.67;;;6.93;;
1336;SDS011;662;48.814;9.318;2023-09-12T14:59:01;8.63;;;6.87;;
1336;SDS011;662;48.814;9.318;2023-09-12T15:01:27;8.43;;;7.50;;
1336;SDS011;662;48.814;9.318;2023-09-12T15:03:53;8.47;;;7.43;;
1336;SDS011;662;48.814;9.318;2023-09-12T15:06:19;8.60;;;7.80;;
1336;SDS011;662;48.814;9.318;2023-09-12T15:08:45;10.83;;;6.97;;
1336;SDS011;662;48.814;9.318;2023-09-12T15:11:11;10.53;;;7.80;;
1336;SDS011;662;48.814;9.318;2023-09-12T15:13:37;11.00;;;7.63;;
1336;SDS011;662;48.814;9.318;2023-09-12T15:16:03;12.80;;;6.97;;
1336;SDS011;662;48.814;9.318;2023-09-12T15:18:29;7.73;;;6.93;;
1336;SDS011;662;48.814;9.318;2023-09-12T15:20:55;8.37;;;7.20;;
1336;SDS011;662;48.814;9.318;2023-09-12T15:23:21;8.20;;;7.23;;
1336;SDS011;662;48.814;9.318;2023-09-12T15:25:48;7.77;;;7.07;;
1336;SDS011;662;48.814;9.318;2023-09-12T15:28:14;7.30;;;6.70;;
1336;SDS011;662;48.814;9.318;2023-09-12T15:30:39;7.47;;;6.73;;
1336;SDS011;662;48.814;9.318;2023-09-12T15:33:05;8.47;;;7.67;;
1336;SDS011;662;48.814;9.318;2023-09-12T15:35:31;9.83;;;7.80;;
1336;SDS011;662;48.814;9.318;2023-09-12T15:37:56;8.03;;;7.30;;
1336;SDS011;662;48.814;9.318;2023-09-12T15:40:22;10.50;;;7.73;;